sensor_id;sensor_type;location;lat;lon;timestamp;P1;durP1;ratioP1;P2;durP2;ratioP2
5979;SDS011;3016;50.308;8.258;2023-03-03T00:00:53;37.30;;;12.73;;
5979;SDS011;3016;50.308;8.258;2023-03-03T00:03:54;35.00;;;13.67;;
5979;SDS011;3016;50.308;8.258;2023-03-03T00:06:54;37.10;;;12.07;;
5979;SDS011;3016;50.308;8.258;2023-03-03T00:09:55;33.93;;;11.93;;
5979;SDS011;3016;50.308;8.258;2023-03-03T00:12:56;31.73;;;10.60;;
5979;SDS011;3016;50.308;8.258;2023-03-03T00:16:11;31.07;;;10.20;;
5979;SDS011;3016;50.308;8.258;2023-03-03T00:19:22;33.30;;;12.13;;
5979;SDS011;3016;50.308;8.258;2023-03-03T00:25:30;32.67;;;10.60;;
5979;SDS011;3016;50.308;8.258;2023-03-03T00:28:43;34.17;;;10.07;;
5979;SDS011;3016;50.308;8.258;2023-03-03T00:31:47;29.97;;;9.73;;
5979;SDS011;3016;50.308;8.258;2023-03-03T00:34:48;30.63;;;10.60;;
5979;SDS011;3016;50.308;8.258;2023-03-03T00:37:55;32.43;;;10.33;;
5979;SDS011;3016;50.308;8.258;2023-03-03T00:40:58;36.50;;;12.67;;
5979;SDS011;3016;50.308;8.258;2023-03-03T00:44:00;32.70;;;10.83;;
5979;SDS011;3016;50.308;8.258;2023-03-03T00:47:41;35.30;;;10.80;;
5979;SDS011;3016;50.308;8.258;2023-03-03T00:50:42;31.07;;;10.30;;
5979;SDS011;3016;50.308;8.258;2023-03-03T00:53:43;36.20;;;11.27;;
5979;SDS011;3016;50.308;8.258;2023-03-03T00:56:44;35.20;;;10.43;;
5979;SDS011;3016;50.308;8.258;2023-03-03T00:59:45;34.73;;;11.00;;
5979;SDS011;3016;50.308;8.258;2023-03-03T01:02:45;37.47;;;13.60;;
5979;SDS011;3016;50.308;8.258;2023-03-03T01:05:47;33.60;;;12.50;;
5979;SDS011;3016;50.308;8.258;2023-03-03T01:08:48;31.33;;;11.27;;
5979;SDS011;3016;50.308;8.258;2023-03-03T01:11:49;33.37;;;11.43;;
5979;SDS011;3016;50.308;8.258;2023-03-03T01:14:51;37.07;;;11.87;;
5979;SDS011;3016;50.308;8.258;2023-03-03T01:17:54;31.50;;;11.10;;
5979;SDS011;3016;50.308;8.258;2023-03-03T01:20:55;29.90;;;10.33;;
5979;SDS011;3016;50.308;8.258;2023-03-03T01:23:55;32.07;;;10.50;;
5979;SDS011;3016;50.308;8.258;2023-03-03T01:26:56;35.23;;;11.33;;
5979;SDS011;3016;50.308;8.258;2023-03-03T01:29:57;35.27;;;11.27;;
5979;SDS011;3016;50.308;8.258;2023-03-03T01:32:57;37.80;;;12.90;;
5979;SDS011;3016;50.308;8.258;2023-03-03T01:35:58;37.17;;;12.57;;
5979;SDS011;3016;50.308;8.258;2023-03-03T01:39:03;33.53;;;10.60;;
5979;SDS011;3016;50.308;8.258;2023-03-03T01:42:04;36.30;;;11.50;;
5979;SDS011;3016;50.308;8.258;2023-03-03T01:51:56;40.07;;;14.93;;
5979;SDS011;3016;50.308;8.258;2023-03-03T01:55:02;33.60;;;12.77;;
5979;SDS011;3016;50.308;8.258;2023-03-03T01:58:11;35.27;;;12.00;;
5979;SDS011;3016;50.308;8.258;2023-03-03T02:01:35;38.13;;;13.00;;
5979;SDS011;3016;50.308;8.258;2023-03-03T02:04:35;38.73;;;14.93;;
5979;SDS011;3016;50.308;8.258;2023-03-03T02:07:36;42.23;;;14.20;;
5979;SDS011;3016;50.308;8.258;2023-03-03T02:10:37;38.10;;;13.40;;
5979;SDS011;3016;50.308;8.258;2023-03-03T02:13:39;39.60;;;14.80;;
5979;SDS011;3016;50.308;8.258;2023-03-03T02:16:39;38.70;;;13.83;;
5979;SDS011;3016;50.308;8.258;2023-03-03T02:23:07;35.47;;;12.60;;
5979;SDS011;3016;50.308;8.258;2023-03-03T02:26:23;38.93;;;13.93;;
5979;SDS011;3016;50.308;8.258;2023-03-03T02:29:29;40.77;;;14.10;;
5979;SDS011;3016;50.308;8.258;2023-03-03T02:32:29;39.90;;;14.80;;
5979;SDS011;3016;50.308;8.258;2023-03-03T02:35:32;38.87;;;16.03;;
5979;SDS011;3016;50.308;8.258;2023-03-03T02:38:36;45.90;;;16.33;;
5979;SDS011;3016;50.308;8.258;2023-03-03T02:42:05;41.17;;;16.40;;
5979;SDS011;3016;50.308;8.258;2023-03-03T02:45:12;36.93;;;13.93;;
5979;SDS011;3016;50.308;8.258;2023-03-03T02:48:12;43.97;;;15.43;;
5979;SDS011;3016;50.308;8.258;2023-03-03T02:51:13;40.70;;;14.90;;
5979;SDS011;3016;50.308;8.258;2023-03-03T02:54:14;42.70;;;16.40;;
5979;SDS011;3016;50.308;8.258;2023-03-03T02:57:18;43.70;;;15.70;;
5979;SDS011;3016;50.308;8.258;2023-03-03T03:00:18;44.00;;;16.50;;
5979;SDS011;3016;50.308;8.258;2023-03-03T03:03:20;44.10;;;17.20;;
5979;SDS011;3016;50.308;8.258;2023-03-03T03:06:21;44.03;;;16.60;;
5979;SDS011;3016;50.308;8.258;2023-03-03T03:09:22;48.60;;;17.50;;
5979;SDS011;3016;50.308;8.258;2023-03-03T03:12:24;42.13;;;15.60;;
5979;SDS011;3016;50.308;8.258;2023-03-03T03:15:25;51.47;;;17.77;;
5979;SDS011;3016;50.308;8.258;2023-03-03T03:18:26;46.53;;;16.70;;
5979;SDS011;3016;50.308;8.258;2023-03-03T03:21:27;40.23;;;16.47;;
5979;SDS011;3016;50.308;8.258;2023-03-03T03:24:29;46.00;;;17.20;;
5979;SDS011;3016;50.308;8.258;2023-03-03T03:27:29;42.63;;;17.90;;
5979;SDS011;3016;50.308;8.258;2023-03-03T03:30:30;50.87;;;18.80;;
5979;SDS011;3016;50.308;8.258;2023-03-03T03:33:31;42.57;;;15.97;;
5979;SDS011;3016;50.308;8.258;2023-03-03T03:36:32;44.23;;;17.40;;
5979;SDS011;3016;50.308;8.258;2023-03-03T03:39:32;47.80;;;17.23;;
5979;SDS011;3016;50.308;8.258;2023-03-03T03:42:33;43.80;;;17.20;;
5979;SDS011;3016;50.308;8.258;2023-03-03T03:45:33;46.60;;;16.63;;
5979;SDS011;3016;50.308;8.258;2023-03-03T03:48:34;49.87;;;17.13;;
5979;SDS011;3016;50.308;8.258;2023-03-03T03:51:35;47.37;;;18.00;;
5979;SDS011;3016;50.308;8.258;2023-03-03T03:54:40;41.47;;;16.50;;
5979;SDS011;3016;50.308;8.258;2023-03-03T03:57:41;48.23;;;17.77;;
5979;SDS011;3016;50.308;8.258;2023-03-03T04:00:42;46.33;;;18.17;;
5979;SDS011;3016;50.308;8.258;2023-03-03T04:03:44;42.37;;;16.50;;
5979;SDS011;3016;50.308;8.258;2023-03-03T04:06:45;51.50;;;18.67;;
5979;SDS011;3016;50.308;8.258;2023-03-03T04:09:46;47.43;;;16.47;;
5979;SDS011;3016;50.308;8.258;2023-03-03T04:12:47;44.67;;;17.03;;
5979;SDS011;3016;50.308;8.258;2023-03-03T04:15:47;44.03;;;18.07;;
5979;SDS011;3016;50.308;8.258;2023-03-03T04:18:48;47.87;;;18.60;;
5979;SDS011;3016;50.308;8.258;2023-03-03T04:21:49;44.93;;;18.63;;
5979;SDS011;3016;50.308;8.258;2023-03-03T04:24:51;51.03;;;18.53;;
5979;SDS011;3016;50.308;8.258;2023-03-03T04:27:52;46.27;;;18.30;;
5979;SDS011;3016;50.308;8.258;2023-03-03T04:30:53;53.47;;;19.53;;
5979;SDS011;3016;50.308;8.258;2023-03-03T04:33:53;56.10;;;20.13;;
5979;SDS011;3016;50.308;8.258;2023-03-03T04:36:54;51.53;;;17.03;;
5979;SDS011;3016;50.308;8.258;2023-03-03T04:39:55;43.83;;;17.53;;
5979;SDS011;3016;50.308;8.258;2023-03-03T04:42:55;44.10;;;17.10;;
5979;SDS011;3016;50.308;8.258;2023-03-03T04:45:56;41.87;;;17.77;;
5979;SDS011;3016;50.308;8.258;2023-03-03T04:48:57;51.70;;;20.37;;
5979;SDS011;3016;50.308;8.258;2023-03-03T04:51:57;48.53;;;20.20;;
5979;SDS011;3016;50.308;8.258;2023-03-03T04:54:58;47.77;;;18.83;;
5979;SDS011;3016;50.308;8.258;2023-03-03T04:57:59;48.00;;;18.60;;
5979;SDS011;3016;50.308;8.258;2023-03-03T05:00:59;49.10;;;21.17;;
5979;SDS011;3016;50.308;8.258;2023-03-03T05:04:00;51.97;;;20.00;;
5979;SDS011;3016;50.308;8.258;2023-03-03T05:07:01;52.20;;;20.67;;
5979;SDS011;3016;50.308;8.258;2023-03-03T05:10:03;51.50;;;20.17;;
5979;SDS011;3016;50.308;8.258;2023-03-03T05:13:04;54.30;;;20.13;;
5979;SDS011;3016;50.308;8.258;2023-03-03T05:16:06;57.70;;;21.10;;
5979;SDS011;3016;50.308;8.258;2023-03-03T05:19:07;62.53;;;23.80;;
5979;SDS011;3016;50.308;8.258;2023-03-03T05:22:10;52.07;;;21.73;;
5979;SDS011;3016;50.308;8.258;2023-03-03T05:25:11;50.50;;;21.20;;
5979;SDS011;3016;50.308;8.258;2023-03-03T05:28:13;51.47;;;21.33;;
5979;SDS011;3016;50.308;8.258;2023-03-03T05:31:14;60.53;;;21.77;;
5979;SDS011;3016;50.308;8.258;2023-03-03T05:34:15;50.23;;;20.20;;
5979;SDS011;3016;50.308;8.258;2023-03-03T05:37:15;52.27;;;22.13;;
5979;SDS011;3016;50.308;8.258;2023-03-03T05:40:16;48.03;;;20.47;;
5979;SDS011;3016;50.308;8.258;2023-03-03T05:43:17;49.47;;;19.70;;
5979;SDS011;3016;50.308;8.258;2023-03-03T05:46:18;46.53;;;19.17;;
5979;SDS011;3016;50.308;8.258;2023-03-03T05:49:19;46.27;;;18.43;;
5979;SDS011;3016;50.308;8.258;2023-03-03T05:52:20;52.17;;;19.00;;
5979;SDS011;3016;50.308;8.258;2023-03-03T05:55:21;48.77;;;19.30;;
5979;SDS011;3016;50.308;8.258;2023-03-03T05:58:22;52.77;;;22.57;;
5979;SDS011;3016;50.308;8.258;2023-03-03T06:01:22;50.60;;;18.87;;
5979;SDS011;3016;50.308;8.258;2023-03-03T06:04:23;65.13;;;22.80;;
5979;SDS011;3016;50.308;8.258;2023-03-03T06:07:24;57.60;;;22.80;;
5979;SDS011;3016;50.308;8.258;2023-03-03T06:10:24;62.10;;;23.37;;
5979;SDS011;3016;50.308;8.258;2023-03-03T06:13:25;55.80;;;22.73;;
5979;SDS011;3016;50.308;8.258;2023-03-03T06:16:26;56.50;;;21.20;;
5979;SDS011;3016;50.308;8.258;2023-03-03T06:19:27;57.20;;;24.37;;
5979;SDS011;3016;50.308;8.258;2023-03-03T06:22:27;51.90;;;21.10;;
5979;SDS011;3016;50.308;8.258;2023-03-03T06:25:29;55.80;;;24.67;;
5979;SDS011;3016;50.308;8.258;2023-03-03T06:28:29;64.87;;;25.27;;
5979;SDS011;3016;50.308;8.258;2023-03-03T06:31:30;61.57;;;23.40;;
5979;SDS011;3016;50.308;8.258;2023-03-03T06:34:31;59.53;;;24.33;;
5979;SDS011;3016;50.308;8.258;2023-03-03T06:37:31;63.20;;;26.00;;
5979;SDS011;3016;50.308;8.258;2023-03-03T06:40:32;67.30;;;23.60;;
5979;SDS011;3016;50.308;8.258;2023-03-03T06:43:33;56.70;;;23.10;;
5979;SDS011;3016;50.308;8.258;2023-03-03T06:46:35;58.40;;;23.57;;
5979;SDS011;3016;50.308;8.258;2023-03-03T06:49:36;60.30;;;26.60;;
5979;SDS011;3016;50.308;8.258;2023-03-03T06:52:37;58.83;;;23.33;;
5979;SDS011;3016;50.308;8.258;2023-03-03T06:55:37;72.37;;;24.90;;
5979;SDS011;3016;50.308;8.258;2023-03-03T06:58:40;60.37;;;24.83;;
5979;SDS011;3016;50.308;8.258;2023-03-03T07:01:41;72.27;;;27.87;;
5979;SDS011;3016;50.308;8.258;2023-03-03T07:04:43;53.57;;;24.20;;
5979;SDS011;3016;50.308;8.258;2023-03-03T07:07:47;67.70;;;28.10;;
5979;SDS011;3016;50.308;8.258;2023-03-03T07:10:48;69.57;;;27.97;;
5979;SDS011;3016;50.308;8.258;2023-03-03T07:13:52;74.23;;;26.73;;
5979;SDS011;3016;50.308;8.258;2023-03-03T07:16:58;74.93;;;28.60;;
5979;SDS011;3016;50.308;8.258;2023-03-03T07:20:09;71.87;;;30.00;;
5979;SDS011;3016;50.308;8.258;2023-03-03T07:23:23;75.30;;;29.87;;
5979;SDS011;3016;50.308;8.258;2023-03-03T07:26:28;79.57;;;27.73;;
5979;SDS011;3016;50.308;8.258;2023-03-03T07:29:31;72.43;;;31.70;;
5979;SDS011;3016;50.308;8.258;2023-03-03T07:32:37;71.20;;;29.90;;
5979;SDS011;3016;50.308;8.258;2023-03-03T07:35:42;71.80;;;30.20;;
5979;SDS011;3016;50.308;8.258;2023-03-03T07:39:03;74.53;;;29.73;;
5979;SDS011;3016;50.308;8.258;2023-03-03T07:45:31;72.77;;;28.20;;
5979;SDS011;3016;50.308;8.258;2023-03-03T07:48:36;68.17;;;27.00;;
5979;SDS011;3016;50.308;8.258;2023-03-03T07:51:40;65.17;;;28.40;;
5979;SDS011;3016;50.308;8.258;2023-03-03T07:54:42;69.90;;;27.57;;
5979;SDS011;3016;50.308;8.258;2023-03-03T07:57:44;59.03;;;24.10;;
5979;SDS011;3016;50.308;8.258;2023-03-03T08:05:35;69.23;;;25.87;;
5979;SDS011;3016;50.308;8.258;2023-03-03T08:08:36;63.17;;;26.53;;
5979;SDS011;3016;50.308;8.258;2023-03-03T08:11:41;69.30;;;27.07;;
5979;SDS011;3016;50.308;8.258;2023-03-03T08:14:51;65.33;;;26.90;;
5979;SDS011;3016;50.308;8.258;2023-03-03T08:17:54;63.50;;;26.73;;
5979;SDS011;3016;50.308;8.258;2023-03-03T08:20:56;60.93;;;23.23;;
5979;SDS011;3016;50.308;8.258;2023-03-03T08:23:59;66.00;;;24.20;;
5979;SDS011;3016;50.308;8.258;2023-03-03T08:26:59;67.03;;;27.87;;
5979;SDS011;3016;50.308;8.258;2023-03-03T08:30:00;59.77;;;21.90;;
5979;SDS011;3016;50.308;8.258;2023-03-03T08:33:01;60.97;;;24.67;;
5979;SDS011;3016;50.308;8.258;2023-03-03T08:36:02;60.70;;;22.53;;
5979;SDS011;3016;50.308;8.258;2023-03-03T08:39:03;57.20;;;23.40;;
5979;SDS011;3016;50.308;8.258;2023-03-03T08:42:04;60.87;;;24.00;;
5979;SDS011;3016;50.308;8.258;2023-03-03T08:45:05;49.93;;;21.97;;
5979;SDS011;3016;50.308;8.258;2023-03-03T08:48:06;65.93;;;25.23;;
5979;SDS011;3016;50.308;8.258;2023-03-03T08:51:07;55.87;;;21.57;;
5979;SDS011;3016;50.308;8.258;2023-03-03T08:54:08;59.13;;;23.03;;
5979;SDS011;3016;50.308;8.258;2023-03-03T08:57:08;65.73;;;22.13;;
5979;SDS011;3016;50.308;8.258;2023-03-03T09:00:10;56.70;;;21.37;;
5979;SDS011;3016;50.308;8.258;2023-03-03T09:03:14;56.40;;;20.40;;
5979;SDS011;3016;50.308;8.258;2023-03-03T09:06:15;52.57;;;19.83;;
5979;SDS011;3016;50.308;8.258;2023-03-03T09:09:15;56.33;;;20.93;;
5979;SDS011;3016;50.308;8.258;2023-03-03T09:12:17;46.17;;;16.27;;
5979;SDS011;3016;50.308;8.258;2023-03-03T09:15:25;43.80;;;16.77;;
5979;SDS011;3016;50.308;8.258;2023-03-03T09:18:31;49.67;;;18.27;;
5979;SDS011;3016;50.308;8.258;2023-03-03T09:21:37;47.97;;;17.27;;
5979;SDS011;3016;50.308;8.258;2023-03-03T09:24:37;51.60;;;18.57;;
5979;SDS011;3016;50.308;8.258;2023-03-03T09:27:38;44.20;;;18.23;;
5979;SDS011;3016;50.308;8.258;2023-03-03T09:30:41;49.57;;;18.27;;
5979;SDS011;3016;50.308;8.258;2023-03-03T09:33:48;42.80;;;17.03;;
5979;SDS011;3016;50.308;8.258;2023-03-03T09:36:51;41.70;;;15.10;;
5979;SDS011;3016;50.308;8.258;2023-03-03T09:39:54;42.83;;;16.10;;
5979;SDS011;3016;50.308;8.258;2023-03-03T09:43:08;44.10;;;16.43;;
5979;SDS011;3016;50.308;8.258;2023-03-03T09:47:01;39.17;;;14.30;;
5979;SDS011;3016;50.308;8.258;2023-03-03T09:54:10;40.93;;;15.20;;
5979;SDS011;3016;50.308;8.258;2023-03-03T10:11:27;39.57;;;13.63;;
5979;SDS011;3016;50.308;8.258;2023-03-03T10:18:39;39.30;;;15.13;;
5979;SDS011;3016;50.308;8.258;2023-03-03T10:21:54;37.83;;;12.93;;
5979;SDS011;3016;50.308;8.258;2023-03-03T10:25:27;38.13;;;13.00;;
5979;SDS011;3016;50.308;8.258;2023-03-03T10:28:56;40.70;;;14.30;;
5979;SDS011;3016;50.308;8.258;2023-03-03T10:32:29;35.93;;;13.30;;
5979;SDS011;3016;50.308;8.258;2023-03-03T10:46:38;37.10;;;13.80;;
5979;SDS011;3016;50.308;8.258;2023-03-03T10:56:40;37.40;;;13.13;;
5979;SDS011;3016;50.308;8.258;2023-03-03T11:45:41;36.70;;;12.40;;
5979;SDS011;3016;50.308;8.258;2023-03-03T11:49:05;34.23;;;11.80;;
5979;SDS011;3016;50.308;8.258;2023-03-03T12:05:38;36.07;;;11.23;;
5979;SDS011;3016;50.308;8.258;2023-03-03T12:35:02;33.33;;;11.17;;
5979;SDS011;3016;50.308;8.258;2023-03-03T12:48:27;33.13;;;10.60;;
5979;SDS011;3016;50.308;8.258;2023-03-03T12:55:15;34.23;;;10.60;;
5979;SDS011;3016;50.308;8.258;2023-03-03T13:55:08;29.73;;;6.80;;
5979;SDS011;3016;50.308;8.258;2023-03-03T13:58:41;28.13;;;7.07;;
5979;SDS011;3016;50.308;8.258;2023-03-03T14:15:47;26.30;;;6.43;;
5979;SDS011;3016;50.308;8.258;2023-03-03T14:19:14;27.17;;;5.73;;
5979;SDS011;3016;50.308;8.258;2023-03-03T14:22:45;24.57;;;5.93;;
5979;SDS011;3016;50.308;8.258;2023-03-03T14:26:08;26.27;;;5.40;;
5979;SDS011;3016;50.308;8.258;2023-03-03T14:29:18;24.10;;;4.83;;
5979;SDS011;3016;50.308;8.258;2023-03-03T14:32:29;24.10;;;4.80;;
5979;SDS011;3016;50.308;8.258;2023-03-03T14:35:32;24.33;;;4.97;;
5979;SDS011;3016;50.308;8.258;2023-03-03T14:38:48;27.97;;;6.47;;
5979;SDS011;3016;50.308;8.258;2023-03-03T14:41:53;24.80;;;5.50;;
5979;SDS011;3016;50.308;8.258;2023-03-03T14:44:58;24.00;;;5.10;;
5979;SDS011;3016;50.308;8.258;2023-03-03T14:51:23;24.90;;;5.50;;
5979;SDS011;3016;50.308;8.258;2023-03-03T14:54:36;23.87;;;4.60;;
5979;SDS011;3016;50.308;8.258;2023-03-03T14:57:47;23.17;;;4.13;;
5979;SDS011;3016;50.308;8.258;2023-03-03T15:00:58;22.87;;;3.90;;
5979;SDS011;3016;50.308;8.258;2023-03-03T15:07:35;21.77;;;3.47;;
5979;SDS011;3016;50.308;8.258;2023-03-03T15:31:11;21.80;;;3.00;;
5979;SDS011;3016;50.308;8.258;2023-03-03T15:34:47;21.93;;;2.73;;
5979;SDS011;3016;50.308;8.258;2023-03-03T15:38:33;20.60;;;2.23;;
5979;SDS011;3016;50.308;8.258;2023-03-03T15:42:30;21.90;;;2.73;;
5979;SDS011;3016;50.308;8.258;2023-03-03T15:49:11;22.40;;;2.97;;
5979;SDS011;3016;50.308;8.258;2023-03-03T15:56:01;21.73;;;2.60;;
5979;SDS011;3016;50.308;8.258;2023-03-03T16:00:05;23.50;;;2.80;;
5979;SDS011;3016;50.308;8.258;2023-03-03T16:03:30;23.07;;;3.10;;
5979;SDS011;3016;50.308;8.258;2023-03-03T18:53:38;40.20;;;14.43;;
5979;SDS011;3016;50.308;8.258;2023-03-03T19:16:04;41.93;;;13.67;;
5979;SDS011;3016;50.308;8.258;2023-03-03T19:59:41;37.77;;;11.07;;
5979;SDS011;3016;50.308;8.258;2023-03-03T20:03:27;35.63;;;12.47;;
5979;SDS011;3016;50.308;8.258;2023-03-03T20:16:50;38.50;;;13.33;;
5979;SDS011;3016;50.308;8.258;2023-03-03T21:18:58;44.00;;;16.00;;
5979;SDS011;3016;50.308;8.258;2023-03-03T21:35:33;44.63;;;14.80;;
5979;SDS011;3016;50.308;8.258;2023-03-03T21:42:42;46.43;;;15.43;;
5979;SDS011;3016;50.308;8.258;2023-03-03T21:45:44;42.60;;;15.87;;
5979;SDS011;3016;50.308;8.258;2023-03-03T21:52:14;40.50;;;14.87;;
5979;SDS011;3016;50.308;8.258;2023-03-03T21:55:19;47.33;;;16.40;;
5979;SDS011;3016;50.308;8.258;2023-03-03T22:07:57;45.83;;;14.80;;
5979;SDS011;3016;50.308;8.258;2023-03-03T22:20:42;46.93;;;18.03;;
5979;SDS011;3016;50.308;8.258;2023-03-03T22:27:00;52.17;;;16.53;;
5979;SDS011;3016;50.308;8.258;2023-03-03T22:30:03;44.57;;;15.50;;
5979;SDS011;3016;50.308;8.258;2023-03-03T22:33:08;50.33;;;15.90;;
5979;SDS011;3016;50.308;8.258;2023-03-03T22:36:24;54.70;;;16.97;;
5979;SDS011;3016;50.308;8.258;2023-03-03T22:39:34;55.80;;;20.80;;
5979;SDS011;3016;50.308;8.258;2023-03-03T22:42:37;49.40;;;16.53;;
5979;SDS011;3016;50.308;8.258;2023-03-03T22:45:39;47.60;;;15.87;;
5979;SDS011;3016;50.308;8.258;2023-03-03T22:48:42;51.23;;;17.03;;
5979;SDS011;3016;50.308;8.258;2023-03-03T22:51:43;52.97;;;17.80;;
5979;SDS011;3016;50.308;8.258;2023-03-03T22:54:45;61.20;;;19.80;;
5979;SDS011;3016;50.308;8.258;2023-03-03T22:57:47;52.50;;;16.70;;
5979;SDS011;3016;50.308;8.258;2023-03-03T23:00:49;52.70;;;18.57;;
5979;SDS011;3016;50.308;8.258;2023-03-03T23:03:54;47.63;;;18.13;;
5979;SDS011;3016;50.308;8.258;2023-03-03T23:06:59;58.50;;;16.60;;
5979;SDS011;3016;50.308;8.258;2023-03-03T23:17:07;54.77;;;19.27;;
5979;SDS011;3016;50.308;8.258;2023-03-03T23:20:13;53.10;;;17.50;;
5979;SDS011;3016;50.308;8.258;2023-03-03T23:23:20;58.50;;;20.77;;
5979;SDS011;3016;50.308;8.258;2023-03-03T23:26:22;55.83;;;19.90;;
5979;SDS011;3016;50.308;8.258;2023-03-03T23:29:24;58.13;;;20.33;;
5979;SDS011;3016;50.308;8.258;2023-03-03T23:32:26;58.40;;;20.77;;
5979;SDS011;3016;50.308;8.258;2023-03-03T23:35:28;64.20;;;21.10;;
5979;SDS011;3016;50.308;8.258;2023-03-03T23:38:36;55.43;;;19.57;;
5979;SDS011;3016;50.308;8.258;2023-03-03T23:41:54;57.47;;;20.27;;
5979;SDS011;3016;50.308;8.258;2023-03-03T23:44:57;61.57;;;19.97;;
5979;SDS011;3016;50.308;8.258;2023-03-03T23:47:59;53.90;;;19.03;;
5979;SDS011;3016;50.308;8.258;2023-03-03T23:51:01;64.93;;;20.37;;
5979;SDS011;3016;50.308;8.258;2023-03-03T23:54:04;61.03;;;21.03;;
5979;SDS011;3016;50.308;8.258;2023-03-03T23:57:06;62.00;;;20.50;;
